WABB/BIK METAR and TAF weather

Enter ICAO airport designator
Station Type Date Time Source
WABB METAR 2019/12/14 17:00 UTC NOAA

WABB 141700Z 34003KT 9999 SCT018 OVC100 26/25 Q1007 NOSIG


Station Type Date Time Source
WABB Decoded METAR 2019/12/14 17:00 UTC NOAA

Biak / Mokmer, Indonesia (WABB) 01-11S 136-07E 11M
Dec 14, 2019 - 12:00 PM EST / 2019.12.14 1700 UTC
Wind: from the NNW (340 degrees) at 3 MPH (3 KT):0
Visibility: greater than 7 mile(s):0
Sky conditions: overcast
Temperature: 78 F (26 C)
Dew Point: 77 F (25 C)
Relative Humidity: 94%
Pressure (altimeter): 29.74 in. Hg (1007 hPa)
ob: WABB 141700Z 34003KT 9999 SCT018 OVC100 26/25 Q1007 NOSIG
cycle: 17

Station Type Date Time Source
WABB TAF 2019/12/14 18:59 UTC NOAA

TAF WABB 141700Z 1418/1600 00000KT 9000 SCT018
TEMPO 1420/1500 -RA BKN018
BECMG 1500/1502 30005KT

Example: see airport list